LTACLTAZ

Guest
Details From LTAC - ESENBOGA
To LTAZ - KAPADOKYA
Flight Number -
Tags generated
Created
Modified
Stats Distance 108 nm / 201 km
Max Altitude 13,000 ft / 3,962 m
Waypoints 3
Social Downloads 4
Likes 0
Share VATSIM

Download

Looking for another format? Having issues loading an existing format? Contact us
Advertisement - Login to hide

Notes

Basic altitude profile: - Ascent Rate: 2500ft/min - Ascent Speed: 250kts - Cruise Altitude: 35000ft - Cruise Speed: 420kts - Descent Rate: 1500ft/min - Descent Speed: 250kts Options: - Use NATs: yes - Use PACOTS: yes - Use low airways: yes - Use high airways: yes

Route

LTAC YUCEL LTAZ

ID Type Via Altitude Latitude Longitude Leg Dist Tot Dist Heading (true) Name
O LTAC APT - 0 ft / 0 m 40.12828˚ 32.99540˚ - 0 nm - ESENBOGA
YUCEL FIX - 13,000 ft / 3,962 m 39.58000˚ 33.58584˚ 42 nm 42 nm 140° / 141° -
O LTAZ APT - 0 ft / 0 m 38.77186˚ 34.53455˚ 65 nm 108 nm 137° / 138° KAPADOKYA

Altitude Profile

Advertisement - Login to hide

LTAC

Details ICAO LTAC (ESB)
Name ESENBOGA
Region Turkey
Timezone Europe/Istanbul (UTC+3.0)
Stats Elevation 3,125 ft / 953 m (AMSL)
Location 40.128285° 32.995403°
Runways 2
Magnetic Variation 5.713° E

METAR

LTAC 150050Z VRB01KT 0400 R03R/0375U R21L/0400U R03L/0400U R21R/0450U FZFG VV001 M02/M02 Q1018 BECMG 0200

Decode

TAF

Not found

Departure Runways

ID Width Length Bearing (true) Bearing (mag) Surface Threshold Offset Overrun Length
03L 148 ft / 45 m 12,334 ft / 3,760 m 36.19° 30.48° Asphalt 1,148 ft / 350 m 200 ft / 61 m
03R 197 ft / 60 m 12,258 ft / 3,736 m 35.29° 29.58° Asphalt 0 ft / 0 m 200 ft / 61 m
21L 197 ft / 60 m 12,258 ft / 3,736 m 215.31° 209.60° Asphalt 0 ft / 0 m 200 ft / 61 m
21R 148 ft / 45 m 12,334 ft / 3,760 m 216.21° 210.50° Asphalt 0 ft / 0 m 200 ft / 61 m

LTAZ

Details ICAO LTAZ (NAV)
Name KAPADOKYA
Region Turkey
Timezone Europe/Istanbul (UTC+3.0)
Stats Elevation 3,100 ft / 945 m (AMSL)
Location 38.771865° 34.534548°
Runways 1
Magnetic Variation 5.599° E

METAR

LTAZ 150050Z 14009KT CAVOK M00/M01 Q1018

Decode

TAF

Not found

Destination Runways

ID Width Length Bearing (true) Bearing (mag) Surface Threshold Offset Overrun Length
11 148 ft / 45 m 9,789 ft / 2,984 m 117.31° 111.71° Concrete 0 ft / 0 m 197 ft / 60 m
29 148 ft / 45 m 9,789 ft / 2,984 m 297.33° 291.73° Concrete 0 ft / 0 m 197 ft / 60 m

Approach Navaids

Runway Type Ident Frequency Range Bearing (true) Bearing (mag) Slope Elevation
11 Localiser ITZK 110.70 MHz 18 nm / 33 km 117.47° 111.87° - 3,100 ft / 945 m (AMSL)
11 Glidescope ITZK 110.70 MHz 10 nm / 19 km 117.32° 111.73° 3.00° 3,100 ft / 945 m (AMSL)

Popular Alternatives